Liberty Island — HPUY — position and weather

sailwx.info

Track history (hours):
 
Tides and Currents Weather Stations Pressure Air Temp Water Temp Dewpoint Dewpoint Depression Visibility Wind Speed Wind Dir Waves Ship Positions

Liberty Island

Last reported at 2018-Feb-28 15:10 UTC. Time now 2018-Apr-27 05:04 UTC.
Position N 01°15' E 104°03'.
Warning: this ship's position is 57 days out of date.

Length 178 m; draft 6.8 m.

Type: Ship. MMSI: 355886000.

Date/timePositionNaut miles runAvg speedWind from/ knotsBaromVisibWave heightAir tempDewpointWater temp
2018-Feb-28 15:10N 01°15' E 104°03'211.6
2018-Feb-28 15:00N 01°15' E 104°01'611.3
2018-Feb-28 14:30N 01°13' E 103°56'510.7
2018-Feb-28 14:00N 01°11' E 103°51'510.2
2018-Feb-28 13:30N 01°08' E 103°46'611.1
2018-Feb-28 12:59N 01°04' E 103°42'510.3
2018-Feb-28 12:30N 01°03' E 103°38'612.0
2018-Feb-28 11:59N 01°07' E 103°32'510.8
2018-Feb-28 11:30N 01°10' E 103°28'711.6
2018-Feb-28 10:56N 01°13' E 103°22'511.8
2018-Feb-28 10:29N 01°17' E 103°18'  
2018-Feb-22 03:20N 01°17' E 103°22'512.7
2018-Feb-22 02:56N 01°14' E 103°26'613.0
2018-Feb-22 02:28N 01°13' E 103°32'612.8
2018-Feb-22 02:00N 01°11' E 103°37'611.9
2018-Feb-22 01:30N 01°09' E 103°43'510.9
2018-Feb-22 01:00N 01°11' E 103°48'611.1
2018-Feb-22 00:29N 01°13' E 103°53'611.4
2018-Feb-22 00:00N 01°15' E 103°58'  
Track history (hours):
 
Tides and Currents Weather Stations Pressure Air Temp Water Temp Dewpoint Dewpoint Depression Visibility Wind Speed Wind Dir Waves Ship Positions

Liberty Island

Last reported at 2018-Feb-28 15:10 UTC. Time now 2018-Apr-27 05:04 UTC.
Position N 01°15' E 104°03'.
Warning: this ship's position is 57 days out of date.

Length 178 m; draft 6.8 m.

Type: Ship. MMSI: 355886000.

Date/timePositionNaut miles runAvg speedWind from/ knotsBaromVisibWave heightAir tempDewpointWater temp
2018-Feb-28 15:10N 01°15' E 104°03'211.6
2018-Feb-28 15:00N 01°15' E 104°01'611.3
2018-Feb-28 14:30N 01°13' E 103°56'510.7
2018-Feb-28 14:00N 01°11' E 103°51'510.2
2018-Feb-28 13:30N 01°08' E 103°46'611.1
2018-Feb-28 12:59N 01°04' E 103°42'510.3
2018-Feb-28 12:30N 01°03' E 103°38'612.0
2018-Feb-28 11:59N 01°07' E 103°32'510.8
2018-Feb-28 11:30N 01°10' E 103°28'711.6
2018-Feb-28 10:56N 01°13' E 103°22'511.8
2018-Feb-28 10:29N 01°17' E 103°18'  
2018-Feb-22 03:20N 01°17' E 103°22'512.7
2018-Feb-22 02:56N 01°14' E 103°26'613.0
2018-Feb-22 02:28N 01°13' E 103°32'612.8
2018-Feb-22 02:00N 01°11' E 103°37'611.9
2018-Feb-22 01:30N 01°09' E 103°43'510.9
2018-Feb-22 01:00N 01°11' E 103°48'611.1
2018-Feb-22 00:29N 01°13' E 103°53'611.4
2018-Feb-22 00:00N 01°15' E 103°58'  

Dump ship's entire track history